createdAt,value
2023-03-22T00:02:59.456Z,6.53
2023-03-22T00:07:02.675Z,6.10
2023-03-22T00:11:03.146Z,7.83
2023-03-22T00:15:07.688Z,5.83
2023-03-22T00:19:08.749Z,8.57
2023-03-22T00:23:12.472Z,4.90
2023-03-22T00:27:12.812Z,6.00
2023-03-22T00:31:14.985Z,7.47
2023-03-22T00:35:16.771Z,5.30
2023-03-22T00:39:19.778Z,8.80
2023-03-22T00:43:21.839Z,8.83
2023-03-22T00:47:24.924Z,7.83
2023-03-22T00:51:27.461Z,6.90
2023-03-22T00:55:31.381Z,6.47
2023-03-22T00:59:31.886Z,6.97
2023-03-22T01:03:33.628Z,8.00
2023-03-22T01:07:34.192Z,5.03
2023-03-22T01:11:39.797Z,7.93
2023-03-22T01:15:41.627Z,6.33
2023-03-22T01:19:43.528Z,9.23
2023-03-22T01:23:43.917Z,7.93
2023-03-22T01:27:47.458Z,6.73
2023-03-22T01:31:48.049Z,8.10
2023-03-22T01:35:48.665Z,7.87
2023-03-22T01:39:50.038Z,7.17
2023-03-22T01:44:32.536Z,6.50
2023-03-22T01:48:42.123Z,6.50
2023-03-22T01:52:44.333Z,8.70
2023-03-22T01:56:53.192Z,4.93
2023-03-22T02:01:08.379Z,4.97
2023-03-22T02:05:22.519Z,5.40
2023-03-22T02:09:24.779Z,5.60
2023-03-22T02:13:56.652Z,8.13
2023-03-22T02:18:45.276Z,5.57
2023-03-22T02:23:39.752Z,7.77
2023-03-22T02:28:20.699Z,10.30
2023-03-22T02:33:08.873Z,8.03
2023-03-22T02:37:56.626Z,7.33
2023-03-22T02:42:18.819Z,9.97
2023-03-22T02:46:30.857Z,6.87
2023-03-22T02:50:41.374Z,9.10
2023-03-22T02:54:50.795Z,7.90
2023-03-22T02:58:59.753Z,6.70
2023-03-22T03:03:11.550Z,9.60
2023-03-22T03:07:17.401Z,6.13
2023-03-22T03:11:18.090Z,6.17
2023-03-22T03:15:26.848Z,7.47
2023-03-22T03:19:37.136Z,8.60
2023-03-22T03:23:51.534Z,7.77
2023-03-22T03:28:00.506Z,9.37
2023-03-22T03:32:09.840Z,6.50
2023-03-22T03:36:17.580Z,6.17
2023-03-22T03:40:23.812Z,9.03
2023-03-22T03:44:25.662Z,6.13
2023-03-22T03:48:34.945Z,9.50
2023-03-22T03:52:35.842Z,10.03
2023-03-22T03:56:37.319Z,7.03
2023-03-22T04:00:39.652Z,7.43
2023-03-22T04:05:04.418Z,6.07
2023-03-22T04:09:05.966Z,6.93
2023-03-22T04:13:12.326Z,7.13
2023-03-22T04:17:13.526Z,6.40
2023-03-22T04:21:16.764Z,6.00
2023-03-22T04:25:34.151Z,11.30
2023-03-22T04:29:40.818Z,7.37
2023-03-22T04:34:05.774Z,8.83
2023-03-22T04:38:31.477Z,9.87
2023-03-22T04:42:32.377Z,8.00
2023-03-22T04:46:44.727Z,8.10
2023-03-22T04:50:45.752Z,8.33
2023-03-22T04:54:49.521Z,6.80
2023-03-22T04:58:50.677Z,8.40
2023-03-22T05:02:52.138Z,8.27
2023-03-22T05:07:01.965Z,11.27
2023-03-22T05:11:20.422Z,8.77
2023-03-22T05:15:33.964Z,6.33
2023-03-22T05:19:36.985Z,9.53
2023-03-22T05:23:38.720Z,9.97
2023-03-22T05:27:41.716Z,8.50
2023-03-22T05:31:56.134Z,8.03
2023-03-22T05:35:57.063Z,10.00
2023-03-22T05:39:59.105Z,9.43
2023-03-22T05:44:12.781Z,8.53
2023-03-22T05:48:22.158Z,7.40
2023-03-22T05:52:22.991Z,7.67
2023-03-22T05:56:41.444Z,8.50
2023-03-22T06:00:44.321Z,8.57
2023-03-22T06:05:05.041Z,8.83
2023-03-22T06:09:16.531Z,8.80
2023-03-22T06:13:24.535Z,10.97
2023-03-22T06:17:28.013Z,11.03
2023-03-22T06:21:28.494Z,11.27
2023-03-22T06:25:29.548Z,8.37
2023-03-22T06:29:30.487Z,9.57
2023-03-22T06:33:36.316Z,15.57
2023-03-22T06:37:48.359Z,11.73
2023-03-22T06:41:49.180Z,12.30
2023-03-22T06:45:49.907Z,11.50
2023-03-22T06:49:58.834Z,10.63
2023-03-22T06:54:12.785Z,8.97
2023-03-22T06:58:14.662Z,11.00
2023-03-22T07:02:17.094Z,10.10
2023-03-22T07:06:41.400Z,10.00
2023-03-22T07:10:44.299Z,10.33
2023-03-22T07:14:46.526Z,12.77
2023-03-22T07:18:57.771Z,11.83
2023-03-22T07:23:01.328Z,7.13
2023-03-22T07:27:05.147Z,10.43
2023-03-22T07:31:10.069Z,9.17
2023-03-22T07:35:45.545Z,9.97
2023-03-22T07:39:49.205Z,7.57
2023-03-22T07:43:55.440Z,9.07
2023-03-22T07:48:02.835Z,9.30
2023-03-22T07:52:26.224Z,10.80
2023-03-22T07:56:31.908Z,7.17
2023-03-22T08:00:34.184Z,7.20
2023-03-22T08:04:56.707Z,8.00
2023-03-22T08:09:17.539Z,8.73
2023-03-22T08:13:26.036Z,10.10
2023-03-22T08:17:27.125Z,10.27
2023-03-22T08:21:27.780Z,10.23
2023-03-22T08:25:30.419Z,9.02
2023-03-22T08:29:41.938Z,6.95
2023-03-22T08:33:42.724Z,7.03
2023-03-22T08:37:44.080Z,9.68
2023-03-22T08:41:44.945Z,8.63
2023-03-22T08:45:48.497Z,9.43
2023-03-22T08:49:50.629Z,5.82
2023-03-22T08:53:58.908Z,5.78
2023-03-22T08:58:32.265Z,5.22
2023-03-22T09:03:08.170Z,2.97
2023-03-22T09:07:08.948Z,4.53
2023-03-22T09:11:13.264Z,2.90
2023-03-22T09:15:15.614Z,3.47
2023-03-22T09:19:22.995Z,3.05
2023-03-22T09:23:23.818Z,5.63
2023-03-22T09:27:25.235Z,3.38
2023-03-22T09:31:25.965Z,3.45
2023-03-22T09:35:45.019Z,2.85
2023-03-22T09:39:48.015Z,3.58
2023-03-22T09:43:56.570Z,2.30
2023-03-22T09:48:01.237Z,2.80
2023-03-22T09:52:04.593Z,1.52
2023-03-22T09:56:12.895Z,2.65
2023-03-22T10:00:23.486Z,3.35
2023-03-22T10:04:55.040Z,1.63
2023-03-22T10:09:11.857Z,2.10
2023-03-22T10:13:22.832Z,3.25
2023-03-22T10:17:30.904Z,4.28
2023-03-22T10:21:32.331Z,4.00
2023-03-22T10:25:42.708Z,4.50
2023-03-22T10:29:47.162Z,2.78
2023-03-22T10:33:58.576Z,2.20
2023-03-22T10:38:03.655Z,2.22
2023-03-22T10:42:13.485Z,3.90
2023-03-22T10:46:22.137Z,4.93
2023-03-22T10:50:29.754Z,2.58
2023-03-22T10:54:34.198Z,2.97
2023-03-22T10:58:40.433Z,5.13
2023-03-22T11:02:55.838Z,2.55
2023-03-22T11:06:59.333Z,6.15
2023-03-22T11:11:04.595Z,3.95
2023-03-22T11:15:30.638Z,2.38
2023-03-22T11:19:37.077Z,1.65
2023-03-22T11:23:40.894Z,2.40
2023-03-22T11:27:53.552Z,3.80
2023-03-22T11:32:01.438Z,2.78
2023-03-22T11:36:05.942Z,2.28
2023-03-22T11:40:11.058Z,4.07
2023-03-22T11:44:16.833Z,5.45
2023-03-22T11:48:27.407Z,3.45
2023-03-22T11:52:31.005Z,2.97
2023-03-22T11:56:34.762Z,2.63
2023-03-22T12:00:40.919Z,3.60
2023-03-22T12:04:49.385Z,3.20
2023-03-22T12:08:56.780Z,3.58
2023-03-22T12:13:04.137Z,2.45
2023-03-22T12:17:11.437Z,1.70
2023-03-22T12:21:15.855Z,2.65
2023-03-22T12:25:20.593Z,2.65
2023-03-22T12:29:25.189Z,2.35
2023-03-22T12:33:31.147Z,5.13
2023-03-22T12:37:38.988Z,2.95
2023-03-22T12:41:43.291Z,3.67
2023-03-22T12:45:50.150Z,2.45
2023-03-22T12:50:00.191Z,1.98
2023-03-22T12:54:05.664Z,3.33
2023-03-22T12:58:10.639Z,1.50
2023-03-22T13:02:24.002Z,2.13
2023-03-22T13:06:58.417Z,1.60
2023-03-22T13:11:26.922Z,2.30
2023-03-22T13:15:42.213Z,1.92
2023-03-22T13:19:55.244Z,2.88
2023-03-22T13:24:22.114Z,1.60
2023-03-22T13:28:37.231Z,4.47
2023-03-22T13:32:39.847Z,2.63
2023-03-22T13:36:40.896Z,2.53
2023-03-22T13:40:53.290Z,2.67
2023-03-22T13:45:04.163Z,2.78
2023-03-22T13:49:36.237Z,2.38
2023-03-22T13:53:38.884Z,2.50
2023-03-22T13:57:54.383Z,2.63
2023-03-22T14:02:08.054Z,3.03
2023-03-22T14:06:20.558Z,1.52
2023-03-22T14:10:30.412Z,2.20
2023-03-22T14:14:38.489Z,2.78
2023-03-22T14:18:49.906Z,3.15
2023-03-22T14:55:43.678Z,0.98
2023-03-22T14:59:50.214Z,0.93
2023-03-22T15:03:59.044Z,1.30
2023-03-22T15:08:13.912Z,1.00
2023-03-22T15:12:16.085Z,3.80
2023-03-22T15:16:22.351Z,1.70
2023-03-22T15:20:31.406Z,3.78
2023-03-22T15:24:40.502Z,1.45
2023-03-22T15:28:49.422Z,0.98
2023-03-22T15:32:50.631Z,1.15
2023-03-22T15:36:56.210Z,1.85
2023-03-22T15:41:00.206Z,0.63
2023-03-22T15:45:05.172Z,1.80
2023-03-22T15:49:23.437Z,1.17
2023-03-22T15:53:34.232Z,1.48
2023-03-22T15:57:52.888Z,3.92
2023-03-22T16:01:55.352Z,1.52
2023-03-22T16:05:57.149Z,0.93
2023-03-22T16:09:59.410Z,0.88
2023-03-22T16:14:07.216Z,1.45
2023-03-22T16:18:13.257Z,1.38
2023-03-22T16:22:16.870Z,2.40
2023-03-22T16:26:20.350Z,1.48
2023-03-22T16:30:24.127Z,1.15
2023-03-22T16:34:24.533Z,0.85
2023-03-22T16:38:28.391Z,1.63
2023-03-22T16:42:29.648Z,3.10
2023-03-22T16:46:34.245Z,0.82
2023-03-22T16:50:38.323Z,1.52
2023-03-22T16:54:40.646Z,1.73
2023-03-22T16:58:41.332Z,1.60
2023-03-22T17:02:44.823Z,1.75
2023-03-22T17:06:46.327Z,3.35
2023-03-22T17:10:48.162Z,5.28
2023-03-22T17:14:51.572Z,5.32
2023-03-22T17:18:57.564Z,2.58
2023-03-22T17:23:01.942Z,2.08
2023-03-22T17:27:08.596Z,9.02
2023-03-22T17:31:14.334Z,23.65
2023-03-22T17:35:24.022Z,35.60
2023-03-22T17:39:51.372Z,11.05
2023-03-22T17:43:49.322Z,15.25
2023-03-22T17:47:51.309Z,25.77
2023-03-22T17:51:56.127Z,19.23
2023-03-22T17:56:25.839Z,22.20
2023-03-22T18:00:26.113Z,13.38
2023-03-22T18:04:28.096Z,8.75
2023-03-22T18:08:33.226Z,9.13
2023-03-22T18:12:33.876Z,5.63
2023-03-22T18:16:53.304Z,3.75
2023-03-22T18:24:58.684Z,36.27
2023-03-22T18:29:00.153Z,24.38
2023-03-22T18:33:05.954Z,16.67
2023-03-22T18:37:08.605Z,18.30
2023-03-22T18:41:37.575Z,22.47
2023-03-22T18:49:57.627Z,22.13
2023-03-22T18:53:58.109Z,24.07
2023-03-22T18:58:02.674Z,14.90
2023-03-22T19:02:11.275Z,12.77
2023-03-22T19:06:23.301Z,16.40
2023-03-22T19:10:27.945Z,18.23
2023-03-22T19:18:42.161Z,17.30
2023-03-22T19:22:42.629Z,15.93
2023-03-22T19:26:55.664Z,16.10
2023-03-22T19:31:05.158Z,13.73
2023-03-22T19:35:06.946Z,13.07
2023-03-22T19:39:11.546Z,19.23
2023-03-22T19:43:17.085Z,17.30
2023-03-22T19:47:22.178Z,18.93
2023-03-22T19:51:22.796Z,19.37
2023-03-22T19:55:23.509Z,18.93
2023-03-22T19:59:25.818Z,18.40
2023-03-22T20:03:30.287Z,15.47
2023-03-22T20:07:31.346Z,21.90
2023-03-22T20:11:43.250Z,17.93
2023-03-22T20:15:44.330Z,14.87
2023-03-22T20:19:47.897Z,16.70
2023-03-22T20:23:48.345Z,16.67
2023-03-22T20:27:49.275Z,15.43
2023-03-22T20:31:49.991Z,15.33
2023-03-22T20:35:55.673Z,17.57
2023-03-22T20:39:56.122Z,16.57
2023-03-22T20:44:02.717Z,13.87
2023-03-22T20:48:07.353Z,12.27
2023-03-22T20:52:12.404Z,11.33
2023-03-22T20:56:16.640Z,13.90
2023-03-22T21:00:24.548Z,14.20
2023-03-22T21:04:29.246Z,13.53
2023-03-22T21:08:39.757Z,10.17
2023-03-22T21:12:44.696Z,12.83
2023-03-22T21:16:47.919Z,10.80
2023-03-22T21:20:49.283Z,12.60
2023-03-22T21:24:52.474Z,16.83
2023-03-22T21:28:52.836Z,17.93
2023-03-22T21:32:54.075Z,18.00
2023-03-22T21:36:55.239Z,16.93
2023-03-22T21:41:02.050Z,15.73
2023-03-22T21:45:03.990Z,12.23
2023-03-22T21:49:05.552Z,15.00
2023-03-22T21:53:06.425Z,13.50
2023-03-22T21:57:10.321Z,16.50
2023-03-22T22:01:11.225Z,24.27
2023-03-22T22:05:13.816Z,17.27
2023-03-22T22:09:15.014Z,10.33
2023-03-22T22:13:18.559Z,10.33
2023-03-22T22:17:19.326Z,9.90
2023-03-22T22:21:22.962Z,9.63
2023-03-22T22:25:24.043Z,9.33
2023-03-22T22:29:27.978Z,11.17
2023-03-22T22:33:29.145Z,8.47
2023-03-22T22:37:29.518Z,8.40
2023-03-22T22:41:31.991Z,8.63
2023-03-22T22:45:36.689Z,6.83
2023-03-22T22:49:37.370Z,8.10
2023-03-22T22:53:39.027Z,10.50
2023-03-22T22:57:39.998Z,8.17
2023-03-22T23:01:46.173Z,7.03
2023-03-22T23:05:50.521Z,8.93
2023-03-22T23:09:55.673Z,7.60
2023-03-22T23:14:03.128Z,10.20
2023-03-22T23:18:13.132Z,9.77
2023-03-22T23:22:15.000Z,9.00
2023-03-22T23:26:16.852Z,8.23
2023-03-22T23:30:18.591Z,7.50
2023-03-22T23:34:22.538Z,10.47
2023-03-22T23:38:23.250Z,8.47
2023-03-22T23:42:23.964Z,7.00
2023-03-22T23:46:26.345Z,6.80
2023-03-22T23:50:29.433Z,5.53
2023-03-22T23:54:29.923Z,12.73
2023-03-22T23:58:31.403Z,7.80
